createdAt,value
2022-08-11T00:01:23.577Z,105.57
2022-08-11T00:04:12.404Z,103.45
2022-08-11T00:07:03.748Z,104.40
2022-08-11T00:09:52.808Z,106.65
2022-08-11T00:12:41.216Z,103.10
2022-08-11T00:15:45.749Z,102.00
2022-08-11T00:18:42.667Z,102.93
2022-08-11T00:22:02.882Z,104.45
2022-08-11T00:24:53.447Z,97.65
2022-08-11T00:27:41.872Z,100.18
2022-08-11T00:30:39.422Z,100.60
2022-08-11T00:33:44.184Z,99.97
2022-08-11T00:36:51.659Z,99.80
2022-08-11T00:39:48.742Z,97.88
2022-08-11T00:42:54.481Z,98.85
2022-08-11T00:46:02.428Z,96.65
2022-08-11T00:48:58.037Z,96.00
2022-08-11T00:52:04.359Z,95.57
2022-08-11T00:55:26.554Z,97.50
2022-08-11T00:58:34.812Z,96.95
2022-08-11T01:01:34.733Z,96.20
2022-08-11T01:04:57.178Z,92.13
2022-08-11T01:08:01.359Z,94.70
2022-08-11T01:11:15.149Z,96.55
2022-08-11T01:14:34.531Z,95.03
2022-08-11T01:18:08.512Z,92.65
2022-08-11T01:21:16.922Z,93.85
2022-08-11T01:24:31.850Z,95.88
2022-08-11T01:27:55.420Z,93.22
2022-08-11T01:30:48.654Z,93.88
2022-08-11T01:34:13.234Z,96.13
2022-08-11T01:37:13.653Z,94.43
2022-08-11T01:40:23.601Z,94.85
2022-08-11T01:43:38.298Z,93.75
2022-08-11T01:46:36.782Z,96.38
2022-08-11T01:50:08.684Z,94.30
2022-08-11T01:53:25.356Z,90.95
2022-08-11T01:56:39.779Z,92.13
2022-08-11T01:59:34.952Z,89.27
2022-08-11T02:02:47.566Z,92.60
2022-08-11T02:05:52.623Z,94.38
2022-08-11T02:11:38.687Z,88.95
2022-08-11T02:14:32.769Z,92.03
2022-08-11T02:17:42.877Z,93.18
2022-08-11T02:21:02.403Z,92.47
2022-08-11T02:24:06.887Z,91.90
2022-08-11T02:27:05.150Z,92.20
2022-08-11T02:30:05.272Z,95.20
2022-08-11T02:33:23.093Z,94.20
2022-08-11T02:36:21.902Z,95.05
2022-08-11T02:39:13.089Z,92.07
2022-08-11T02:42:32.817Z,90.72
2022-08-11T02:45:29.596Z,92.80
2022-08-11T02:48:41.301Z,93.22
2022-08-11T02:51:53.896Z,90.28
2022-08-11T02:54:55.418Z,92.32
2022-08-11T02:57:59.583Z,91.47
2022-08-11T03:01:11.648Z,93.40
2022-08-11T03:04:11.284Z,89.53
2022-08-11T03:07:38.773Z,87.63
2022-08-11T03:10:32.958Z,87.65
2022-08-11T03:13:47.043Z,89.15
2022-08-11T03:16:46.631Z,87.50
2022-08-11T03:19:42.355Z,86.13
2022-08-11T03:22:29.305Z,91.32
2022-08-11T03:25:55.087Z,89.22
2022-08-11T03:28:48.297Z,87.53
2022-08-11T03:32:11.411Z,90.85
2022-08-11T03:35:01.697Z,91.20
2022-08-11T03:38:00.204Z,91.65
2022-08-11T03:42:03.850Z,90.97
2022-08-11T03:45:23.994Z,86.50
2022-08-11T03:48:39.914Z,85.93
2022-08-11T03:51:52.131Z,89.03
2022-08-11T03:54:59.573Z,87.75
2022-08-11T03:58:08.228Z,85.00
2022-08-11T04:01:34.997Z,89.18
2022-08-11T04:05:18.243Z,88.40
2022-08-11T04:08:42.576Z,89.95
2022-08-11T04:11:50.890Z,87.47
2022-08-11T04:15:19.375Z,89.35
2022-08-11T04:18:43.687Z,89.28
2022-08-11T04:22:18.883Z,90.18
2022-08-11T04:25:28.941Z,90.40
2022-08-11T04:28:49.915Z,86.88
2022-08-11T04:31:52.490Z,88.32
2022-08-11T04:35:23.438Z,88.22
2022-08-11T04:38:47.731Z,90.78
2022-08-11T04:42:31.967Z,89.30
2022-08-11T04:45:33.896Z,90.07
2022-08-11T04:49:11.839Z,94.47
2022-08-11T04:52:42.595Z,92.78
2022-08-11T04:56:05.361Z,92.80
2022-08-11T04:59:39.013Z,93.65
2022-08-11T05:03:01.070Z,94.00
2022-08-11T05:06:06.441Z,94.63
2022-08-11T05:09:28.629Z,98.65
2022-08-11T05:12:36.704Z,100.22
2022-08-11T05:15:55.721Z,102.10
2022-08-11T05:19:16.145Z,102.53
2022-08-11T05:22:27.317Z,110.43
2022-08-11T05:26:42.954Z,108.68
2022-08-11T05:29:21.022Z,113.45
2022-08-11T05:32:31.710Z,124.32
2022-08-11T05:36:00.941Z,133.00
2022-08-11T05:38:55.668Z,141.05
2022-08-11T05:42:01.457Z,150.02
2022-08-11T05:45:15.614Z,157.90
2022-08-11T05:48:23.446Z,162.27
2022-08-11T05:51:30.349Z,162.05
2022-08-11T05:54:36.845Z,155.43
2022-08-11T05:57:42.377Z,148.90
2022-08-11T06:00:43.970Z,143.30
2022-08-11T06:03:58.242Z,144.57
2022-08-11T06:06:52.509Z,144.55
2022-08-11T06:09:50.778Z,140.47
2022-08-11T06:12:40.877Z,136.80
2022-08-11T06:15:31.026Z,136.80
2022-08-11T06:18:19.069Z,142.40
2022-08-11T06:21:11.546Z,152.23
2022-08-11T06:23:59.496Z,158.63
2022-08-11T06:27:11.641Z,166.30
2022-08-11T06:30:00.831Z,166.77
2022-08-11T06:32:55.520Z,166.75
2022-08-11T06:36:02.770Z,169.80
2022-08-11T06:39:28.157Z,174.93
2022-08-11T06:45:55.836Z,173.68
2022-08-11T06:48:44.914Z,173.70
2022-08-11T06:51:35.199Z,179.23
2022-08-11T06:54:23.925Z,186.13
2022-08-11T06:57:34.092Z,182.07
2022-08-11T07:00:33.084Z,177.70
2022-08-11T07:03:21.799Z,188.75
2022-08-11T07:06:50.136Z,191.30
2022-08-11T07:10:27.845Z,196.27
2022-08-11T07:13:44.711Z,198.15
2022-08-11T07:16:36.228Z,201.45
2022-08-11T07:19:45.745Z,208.85
2022-08-11T07:22:52.053Z,194.40
2022-08-11T07:26:03.192Z,186.95
2022-08-11T07:28:59.058Z,191.27
2022-08-11T07:31:53.999Z,193.63
2022-08-11T07:34:48.191Z,198.98
2022-08-11T07:37:36.292Z,192.30
2022-08-11T07:40:24.392Z,185.13
2022-08-11T07:43:13.130Z,186.85
2022-08-11T07:46:23.330Z,189.93
2022-08-11T07:49:29.945Z,209.70
2022-08-11T07:52:28.575Z,217.05
2022-08-11T07:55:17.445Z,224.15
2022-08-11T07:58:24.927Z,217.23
2022-08-11T08:01:39.535Z,215.65
2022-08-11T08:04:47.361Z,218.52
2022-08-11T08:07:55.987Z,221.57
2022-08-11T08:11:02.334Z,212.85
2022-08-11T08:14:08.585Z,210.05
2022-08-11T08:17:15.990Z,211.52
2022-08-11T08:20:04.180Z,209.80
2022-08-11T08:22:57.238Z,209.48
2022-08-11T08:25:46.106Z,210.93
2022-08-11T08:28:34.148Z,223.05
2022-08-11T08:31:21.722Z,227.13
2022-08-11T08:34:10.621Z,222.18
2022-08-11T08:36:58.475Z,222.07
2022-08-11T08:39:47.323Z,221.95
2022-08-11T08:42:44.827Z,226.18
2022-08-11T08:45:37.802Z,224.90
2022-08-11T08:48:26.512Z,230.40
2022-08-11T08:51:58.798Z,224.57
2022-08-11T08:54:43.327Z,223.27
2022-08-11T08:57:39.961Z,224.27
2022-08-11T09:00:39.733Z,225.05
2022-08-11T09:04:06.912Z,228.95
2022-08-11T09:06:40.009Z,229.40
2022-08-11T09:09:27.897Z,229.40
2022-08-11T09:12:17.054Z,231.25
2022-08-11T09:15:24.652Z,224.30
2022-08-11T09:18:12.490Z,226.38
2022-08-11T09:21:02.434Z,220.65
2022-08-11T09:24:14.962Z,223.98
2022-08-11T09:27:10.837Z,220.20
2022-08-11T09:29:58.581Z,220.60
2022-08-11T09:32:46.214Z,218.20
2022-08-11T09:35:38.790Z,227.77
2022-08-11T09:38:49.475Z,230.52
2022-08-11T09:41:55.597Z,222.82
2022-08-11T09:44:52.864Z,216.88
2022-08-11T09:47:41.179Z,219.68
2022-08-11T09:50:28.528Z,218.02
2022-08-11T09:53:36.808Z,219.93
2022-08-11T09:56:48.192Z,223.73
2022-08-11T09:59:35.161Z,231.65
2022-08-11T10:02:30.329Z,239.13
2022-08-11T10:05:39.680Z,237.50
2022-08-11T10:08:30.096Z,231.40
2022-08-11T10:11:21.875Z,236.95
2022-08-11T10:14:34.834Z,245.75
2022-08-11T10:17:23.327Z,244.38
2022-08-11T10:20:12.137Z,242.88
2022-08-11T10:23:18.657Z,236.48
2022-08-11T10:26:25.840Z,230.35
2022-08-11T10:29:36.738Z,237.48
2022-08-11T10:32:57.779Z,246.45
2022-08-11T10:35:47.122Z,242.80
2022-08-11T10:38:35.225Z,248.25
2022-08-11T10:42:01.832Z,238.77
2022-08-11T10:44:51.988Z,239.77
2022-08-11T10:47:46.730Z,235.23
2022-08-11T10:50:56.096Z,246.40
2022-08-11T10:54:12.451Z,240.63
2022-08-11T10:57:19.749Z,238.77
2022-08-11T11:00:10.232Z,240.27
2022-08-11T11:03:22.317Z,240.80
2022-08-11T11:06:29.228Z,238.85
2022-08-11T11:09:22.328Z,233.35
2022-08-11T11:12:34.186Z,245.48
2022-08-11T11:15:43.152Z,246.00
2022-08-11T11:18:36.050Z,257.38
2022-08-11T11:21:25.511Z,257.67
2022-08-11T11:24:40.096Z,257.00
2022-08-11T11:27:46.644Z,253.02
2022-08-11T11:31:24.610Z,258.77
2022-08-11T11:34:23.334Z,253.20
2022-08-11T11:37:13.398Z,253.00
2022-08-11T11:40:01.132Z,250.98
2022-08-11T11:42:50.913Z,249.52
2022-08-11T11:45:40.806Z,247.23
2022-08-11T11:48:28.924Z,248.20
2022-08-11T11:51:16.365Z,253.38
2022-08-11T11:54:05.990Z,252.55
2022-08-11T12:00:04.132Z,248.65
2022-08-11T12:02:52.381Z,257.38
2022-08-11T12:05:43.648Z,252.25
2022-08-11T12:08:31.369Z,251.43
2022-08-11T12:11:40.318Z,249.52
2022-08-11T12:14:31.084Z,248.30
2022-08-11T12:17:18.645Z,244.77
2022-08-11T12:20:33.423Z,247.98
2022-08-11T12:23:34.039Z,256.33
2022-08-11T12:26:40.028Z,261.60
2022-08-11T12:29:28.524Z,253.15
2022-08-11T12:32:16.105Z,259.13
2022-08-11T12:35:05.654Z,260.40
2022-08-11T12:38:02.594Z,256.08
2022-08-11T12:41:15.163Z,275.23
2022-08-11T12:44:25.223Z,272.00
2022-08-11T12:47:17.025Z,267.63
2022-08-11T12:50:23.837Z,258.42
2022-08-11T12:53:12.776Z,269.80
2022-08-11T12:56:23.224Z,267.45
2022-08-11T12:59:29.240Z,259.67
2022-08-11T13:02:39.054Z,258.83
2022-08-11T13:05:28.825Z,254.10
2022-08-11T13:08:22.114Z,252.55
2022-08-11T13:11:56.955Z,255.82
2022-08-11T13:14:36.722Z,247.63
2022-08-11T13:17:43.504Z,253.13
2022-08-11T13:20:32.129Z,270.58
2022-08-11T13:23:20.455Z,281.27
2022-08-11T13:26:08.949Z,273.95
2022-08-11T13:28:56.051Z,269.42
2022-08-11T13:31:43.463Z,270.13
2022-08-11T13:34:31.491Z,261.80
2022-08-11T13:37:21.269Z,263.50
2022-08-11T13:40:45.752Z,257.88
2022-08-11T13:43:38.197Z,257.90
2022-08-11T13:46:27.624Z,256.67
2022-08-11T13:49:20.933Z,258.63
2022-08-11T13:52:16.093Z,256.75
2022-08-11T13:55:04.013Z,253.52
2022-08-11T13:58:18.405Z,262.17
2022-08-11T14:01:01.908Z,261.90
2022-08-11T14:04:30.844Z,256.92
2022-08-11T14:07:22.893Z,257.70
2022-08-11T14:10:13.467Z,261.38
2022-08-11T14:13:24.991Z,256.58
2022-08-11T14:16:19.080Z,254.13
2022-08-11T14:19:11.970Z,251.98
2022-08-11T14:22:09.143Z,254.52
2022-08-11T14:24:58.254Z,253.93
2022-08-11T14:28:32.156Z,251.75
2022-08-11T14:31:00.501Z,249.63
2022-08-11T14:33:59.689Z,257.50
2022-08-11T14:36:54.864Z,253.05
2022-08-11T14:39:48.470Z,254.95
2022-08-11T14:42:54.096Z,253.25
2022-08-11T14:45:59.880Z,251.43
2022-08-11T14:48:46.991Z,248.13
2022-08-11T14:51:34.895Z,245.00
2022-08-11T14:54:46.566Z,251.40
2022-08-11T14:57:54.977Z,243.15
2022-08-11T15:00:44.870Z,250.40
2022-08-11T15:03:33.839Z,245.50
2022-08-11T15:06:21.067Z,243.57
2022-08-11T15:09:09.356Z,242.80
2022-08-11T15:12:32.352Z,245.48
2022-08-11T15:15:35.951Z,239.68
2022-08-11T15:18:24.279Z,240.60
2022-08-11T15:21:29.815Z,239.55
2022-08-11T15:24:19.512Z,244.13
2022-08-11T15:27:32.356Z,237.88
2022-08-11T15:30:38.093Z,237.38
2022-08-11T15:33:47.665Z,233.60
2022-08-11T15:36:54.608Z,231.48
2022-08-11T15:40:31.102Z,226.55
2022-08-11T15:43:42.420Z,226.27
2022-08-11T15:46:39.236Z,213.57
2022-08-11T15:50:10.952Z,224.10
2022-08-11T15:52:53.858Z,212.45
2022-08-11T15:55:43.570Z,208.32
2022-08-11T15:59:10.727Z,210.55
2022-08-11T16:02:23.702Z,212.68
2022-08-11T16:05:14.155Z,207.50
2022-08-11T16:08:32.773Z,210.88
2022-08-11T16:11:22.149Z,214.25
2022-08-11T16:14:30.236Z,212.18
2022-08-11T16:17:19.829Z,210.82
2022-08-11T16:20:08.944Z,209.00
2022-08-11T16:23:02.142Z,204.68
2022-08-11T16:27:02.835Z,211.93
2022-08-11T16:29:00.224Z,209.93
2022-08-11T16:32:08.395Z,209.25
2022-08-11T16:35:18.427Z,205.85
2022-08-11T16:38:26.259Z,202.88
2022-08-11T16:41:17.134Z,202.98
2022-08-11T16:44:37.427Z,209.32
2022-08-11T16:48:03.396Z,203.65
2022-08-11T16:50:36.045Z,206.40
2022-08-11T16:53:23.192Z,205.75
2022-08-11T16:56:49.202Z,207.50
2022-08-11T16:59:39.581Z,205.65
2022-08-11T17:02:53.503Z,207.32
2022-08-11T17:06:05.461Z,203.15
2022-08-11T17:09:12.677Z,198.52
2022-08-11T17:12:20.788Z,198.80
2022-08-11T17:15:33.114Z,198.50
2022-08-11T17:18:43.370Z,197.18
2022-08-11T17:21:34.677Z,198.88
2022-08-11T17:24:21.746Z,194.68
2022-08-11T17:27:09.779Z,193.35
2022-08-11T17:29:59.384Z,192.82
2022-08-11T17:33:08.231Z,190.85
2022-08-11T17:35:57.527Z,193.32
2022-08-11T17:38:45.734Z,201.27
2022-08-11T17:41:51.288Z,191.15
2022-08-11T17:44:58.734Z,190.10
2022-08-11T17:48:05.630Z,192.43
2022-08-11T17:50:56.516Z,190.82
2022-08-11T17:54:24.088Z,191.35
2022-08-11T17:57:30.446Z,187.85
2022-08-11T18:00:17.921Z,188.40
2022-08-11T18:03:23.899Z,185.43
2022-08-11T18:06:14.795Z,185.07
2022-08-11T18:09:23.329Z,185.95
2022-08-11T18:12:29.639Z,182.35
2022-08-11T18:15:34.864Z,181.30
2022-08-11T18:18:40.583Z,178.70
2022-08-11T18:22:14.334Z,178.18
2022-08-11T18:25:24.915Z,177.02
2022-08-11T18:28:33.868Z,170.95
2022-08-11T18:31:40.299Z,166.57
2022-08-11T18:34:51.584Z,169.13
2022-08-11T18:38:04.294Z,171.38
2022-08-11T18:41:10.542Z,165.85
2022-08-11T18:44:21.076Z,164.20
2022-08-11T18:47:30.055Z,160.70
2022-08-11T18:50:39.806Z,160.98
2022-08-11T18:53:47.622Z,155.50
2022-08-11T18:56:54.546Z,160.05
2022-08-11T19:00:02.431Z,155.38
2022-08-11T19:03:09.004Z,152.93
2022-08-11T19:06:38.778Z,151.18
2022-08-11T19:09:47.192Z,152.85
2022-08-11T19:12:59.537Z,152.52
2022-08-11T19:16:06.353Z,149.43
2022-08-11T19:19:13.263Z,150.40
2022-08-11T19:22:21.971Z,152.35
2022-08-11T19:25:30.013Z,147.00
2022-08-11T19:28:37.552Z,144.00
2022-08-11T19:31:45.486Z,144.88
2022-08-11T19:34:51.836Z,147.50
2022-08-11T19:37:58.631Z,142.52
2022-08-11T19:41:05.362Z,143.52
2022-08-11T19:44:16.454Z,138.63
2022-08-11T19:47:22.364Z,140.70
2022-08-11T19:50:28.148Z,143.50
2022-08-11T19:53:34.441Z,141.50
2022-08-11T19:56:40.562Z,138.82
2022-08-11T19:59:46.785Z,141.70
2022-08-11T20:02:52.649Z,139.32
2022-08-11T20:06:01.102Z,140.75
2022-08-11T20:09:08.842Z,135.10
2022-08-11T20:12:19.981Z,133.50
2022-08-11T20:18:37.738Z,131.60
2022-08-11T20:21:45.438Z,131.00
2022-08-11T20:24:52.789Z,130.57
2022-08-11T20:28:04.241Z,128.30
2022-08-11T20:31:12.298Z,130.07
2022-08-11T20:34:20.117Z,127.38
2022-08-11T20:37:26.387Z,125.63
2022-08-11T20:40:34.405Z,123.00
2022-08-11T20:44:07.657Z,126.00
2022-08-11T20:47:13.208Z,124.22
2022-08-11T20:50:21.017Z,124.13
2022-08-11T20:53:29.213Z,124.65
2022-08-11T20:56:37.803Z,123.75
2022-08-11T20:59:52.804Z,122.60
2022-08-11T21:03:04.771Z,123.28
2022-08-11T21:06:11.442Z,122.57
2022-08-11T21:09:58.247Z,124.30
2022-08-11T21:12:50.799Z,122.13
2022-08-11T21:16:03.315Z,121.28
2022-08-11T21:19:11.082Z,125.18
2022-08-11T21:22:21.210Z,124.18
2022-08-11T21:25:36.164Z,123.07
2022-08-11T21:28:42.042Z,121.13
2022-08-11T21:31:50.071Z,117.15
2022-08-11T21:34:57.533Z,122.20
2022-08-11T21:38:07.099Z,121.90
2022-08-11T21:41:13.620Z,120.22
2022-08-11T21:44:20.389Z,118.38
2022-08-11T21:47:43.537Z,125.40
2022-08-11T21:50:49.993Z,120.88
2022-08-11T21:53:56.808Z,118.95
2022-08-11T21:57:04.489Z,117.30
2022-08-11T22:00:16.718Z,119.53
2022-08-11T22:03:23.666Z,117.97
2022-08-11T22:06:29.108Z,116.00
2022-08-11T22:09:34.623Z,115.85
2022-08-11T22:12:44.755Z,115.43
2022-08-11T22:15:51.307Z,112.82
2022-08-11T22:18:56.991Z,117.32
2022-08-11T22:22:06.168Z,115.25
2022-08-11T22:25:16.004Z,113.95
2022-08-11T22:28:22.533Z,117.53
2022-08-11T22:31:30.137Z,114.72
2022-08-11T22:34:53.416Z,115.82
2022-08-11T22:37:59.791Z,113.38
2022-08-11T22:41:05.647Z,113.55
2022-08-11T22:44:11.497Z,112.68
2022-08-11T22:47:21.505Z,118.57
2022-08-11T22:50:29.173Z,114.32
2022-08-11T22:53:57.770Z,112.60
2022-08-11T22:57:02.398Z,112.45
2022-08-11T23:00:08.488Z,116.28
2022-08-11T23:03:34.261Z,112.07
2022-08-11T23:06:41.205Z,111.38
2022-08-11T23:09:47.065Z,110.38
2022-08-11T23:12:54.152Z,112.05
2022-08-11T23:16:00.002Z,109.45
2022-08-11T23:19:06.404Z,109.63
2022-08-11T23:22:13.401Z,110.97
2022-08-11T23:25:18.840Z,108.97
2022-08-11T23:28:26.392Z,106.10
2022-08-11T23:31:51.108Z,106.97
2022-08-11T23:35:37.841Z,108.05
2022-08-11T23:38:29.012Z,103.55
2022-08-11T23:41:35.045Z,106.35
2022-08-11T23:44:40.722Z,103.82
2022-08-11T23:47:50.755Z,104.18
2022-08-11T23:50:56.919Z,101.20
2022-08-11T23:54:07.870Z,101.00
2022-08-11T23:57:14.116Z,99.68
